Time;durP1;ratioP1;P1;durP2;ratioP2;P2;SDS_P1;SDS_P2;PMS_P1;PMS_P2;Temp;Humidity;BMP_temperature;BMP_pressure;BME280_temperature;BME280_humidity;BME280_pressure;Samples;Min_cycle;Max_cycle;Signal;HPM_P1;HPM_P2
2023/05/14 00:02:45;;;;;;;5.63;5.13;;;;;;;14.01;56.75;97997.34;8445758;28;20223;-70
2023/05/14 00:06:48;;;;;;;6.17;5.60;;;;;;;13.92;56.37;98000.50;8445755;28;20344;-70
2023/05/14 00:10:52;;;;;;;9.03;7.40;;;;;;;13.84;56.71;97998.31;8445548;28;20234;-68
2023/05/14 00:14:55;;;;;;;7.83;7.03;;;;;;;13.84;56.94;97993.13;8445557;28;20252;-68
2023/05/14 00:18:58;;;;;;;8.37;7.03;;;;;;;13.80;57.41;97986.41;8445420;28;20222;-69
2023/05/14 00:23:01;;;;;;;7.10;6.40;;;;;;;13.81;57.37;97980.28;8445101;28;20231;-69
2023/05/14 00:27:06;;;;;;;5.77;5.27;;;;;;;13.75;57.26;97981.47;8445382;28;20228;-69
2023/05/14 00:31:09;;;;;;;5.77;5.27;;;;;;;13.65;57.10;97986.38;8448824;27;20232;-69
2023/05/14 00:35:11;;;;;;;5.27;4.77;;;;;;;13.58;57.01;97984.22;8451174;28;20229;-69
2023/05/14 00:39:14;;;;;;;5.20;4.80;;;;;;;13.69;56.47;97981.84;8451005;27;20229;-69
2023/05/14 00:43:19;;;;;;;5.60;5.20;;;;;;;13.56;57.07;97983.47;8450976;28;20436;-69
2023/05/14 00:47:22;;;;;;;5.93;5.43;;;;;;;13.54;57.63;97982.72;8476465;28;20310;-69
2023/05/14 00:51:25;;;;;;;5.93;5.43;;;;;;;13.63;57.60;97980.41;8484373;27;20236;-69
2023/05/14 00:55:30;;;;;;;6.63;6.03;;;;;;;13.53;57.87;97983.63;8484138;27;20240;-69
2023/05/14 00:59:34;;;;;;;6.63;6.03;;;;;;;13.57;57.87;97985.94;8484306;28;20231;-69
2023/05/14 01:03:37;;;;;;;6.70;5.70;;;;;;;13.51;58.13;97982.88;8483910;28;20236;-69
2023/05/14 01:07:48;;;;;;;6.37;5.83;;;;;;;13.59;57.33;97983.25;8483964;27;20228;-70
2023/05/14 01:11:58;;;;;;;6.47;5.83;;;;;;;13.50;57.46;97982.03;8483741;27;20224;-69
2023/05/14 01:16:03;;;;;;;6.80;5.93;;;;;;;13.47;57.40;97977.81;8483668;27;20224;-69
2023/05/14 01:20:08;;;;;;;6.20;5.60;;;;;;;13.45;57.51;97974.47;8483707;27;20530;-68
2023/05/14 01:24:12;;;;;;;5.97;5.47;;;;;;;13.50;57.41;97979.44;8483278;27;20239;-69
2023/05/14 01:28:17;;;;;;;6.43;5.83;;;;;;;13.37;57.32;97970.63;8483380;27;20228;-68
2023/05/14 01:32:23;;;;;;;6.20;5.70;;;;;;;13.37;58.07;97971.47;8474504;27;20227;-69
2023/05/14 01:36:27;;;;;;;6.07;5.43;;;;;;;13.27;57.74;97971.13;8482746;27;20239;-68
2023/05/14 01:40:32;;;;;;;6.67;6.07;;;;;;;13.17;57.22;97969.91;8482367;28;20517;-69
2023/05/14 01:44:35;;;;;;;7.03;6.33;;;;;;;13.21;57.79;97979.25;8482325;28;20231;-68
2023/05/14 01:48:38;;;;;;;6.87;6.03;;;;;;;13.21;58.26;97984.47;8482552;27;20235;-69
2023/05/14 01:52:40;;;;;;;6.97;6.27;;;;;;;13.21;58.46;97979.25;8482400;28;20232;-68
2023/05/14 01:56:44;;;;;;;6.43;5.93;;;;;;;13.35;58.27;97980.28;8482361;27;20423;-68
2023/05/14 02:00:47;;;;;;;6.30;5.80;;;;;;;13.32;59.30;97968.28;8481985;28;20227;-68
2023/05/14 02:04:50;;;;;;;6.33;5.80;;;;;;;13.34;59.41;97970.78;8482020;28;20238;-68
2023/05/14 02:08:53;;;;;;;5.83;5.40;;;;;;;13.47;59.16;97966.59;8481957;27;20227;-69
2023/05/14 02:12:57;;;;;;;7.30;5.50;;;;;;;13.47;59.46;97966.59;8481906;28;20639;-69
2023/05/14 02:16:59;;;;;;;7.37;5.70;;;;;;;13.54;59.18;97967.09;8481671;28;20310;-68
2023/05/14 02:21:02;;;;;;;6.00;5.50;;;;;;;13.48;59.76;97956.09;8481582;28;20517;-68
2023/05/14 02:25:06;;;;;;;5.53;5.13;;;;;;;13.53;59.76;97957.59;8481380;28;20522;-69
2023/05/14 02:29:10;;;;;;;5.40;5.00;;;;;;;13.61;59.42;97966.66;8481299;28;20478;-69
2023/05/14 02:33:13;;;;;;;5.30;4.90;;;;;;;13.67;59.28;97960.28;8481037;27;20223;-68
2023/05/14 02:37:16;;;;;;;5.83;5.23;;;;;;;13.62;59.67;97957.09;8481099;28;20243;-68
2023/05/14 02:41:20;;;;;;;5.07;4.57;;;;;;;13.65;59.22;97951.69;8472145;28;20520;-69
2023/05/14 02:45:24;;;;;;;5.03;4.63;;;;;;;13.66;59.77;97953.38;8480766;27;20232;-69
2023/05/14 02:49:27;;;;;;;5.40;4.90;;;;;;;13.75;59.81;97941.63;8480671;28;20231;-68
2023/05/14 02:53:30;;;;;;;6.03;5.43;;;;;;;13.61;59.82;97940.63;8480313;27;20230;-69
2023/05/14 02:57:32;;;;;;;6.13;5.53;;;;;;;13.66;59.68;97946.41;8480273;27;20236;-69
2023/05/14 03:01:37;;;;;;;5.40;4.97;;;;;;;13.64;59.86;97948.25;8480555;27;20273;-68
2023/05/14 03:05:40;;;;;;;5.63;5.13;;;;;;;13.68;60.33;97943.72;8480108;27;20235;-69
2023/05/14 03:09:43;;;;;;;5.67;5.07;;;;;;;13.66;60.73;97937.75;8480033;28;20227;-69
2023/05/14 03:13:46;;;;;;;6.27;5.60;;;;;;;13.75;60.84;97950.25;8480065;28;20224;-69
2023/05/14 03:17:50;;;;;;;6.63;5.93;;;;;;;13.73;60.48;97946.91;8480063;28;20225;-68
2023/05/14 03:21:53;;;;;;;5.97;5.40;;;;;;;13.75;60.50;97939.84;8480150;28;20509;-69
2023/05/14 03:25:56;;;;;;;6.23;5.47;;;;;;;13.84;60.56;97941.06;8479687;27;20226;-69
2023/05/14 03:29:59;;;;;;;5.93;5.43;;;;;;;13.83;60.61;97950.63;8479858;28;20264;-69
2023/05/14 03:34:03;;;;;;;5.10;4.70;;;;;;;13.92;60.82;97940.59;8479868;27;20225;-68
2023/05/14 03:38:06;;;;;;;6.00;5.50;;;;;;;13.74;60.73;97935.56;8479622;28;20234;-69
2023/05/14 03:42:09;;;;;;;5.83;5.13;;;;;;;13.93;61.03;97944.91;8479136;28;20238;-68
2023/05/14 03:46:12;;;;;;;5.90;5.40;;;;;;;13.99;60.82;97945.41;8479597;27;20238;-69
2023/05/14 03:50:16;;;;;;;5.40;5.00;;;;;;;13.98;60.48;97951.53;8479108;28;20235;-69
2023/05/14 03:54:19;;;;;;;7.20;5.20;;;;;;;13.96;60.68;97940.34;8470085;27;20225;-69
2023/05/14 03:58:21;;;;;;;5.70;5.30;;;;;;;13.91;60.98;97944.16;8478943;28;20233;-69
2023/05/14 04:02:24;;;;;;;5.23;4.83;;;;;;;13.95;60.86;97946.47;8478987;28;20399;-69
2023/05/14 04:06:29;;;;;;;5.20;4.80;;;;;;;13.97;61.08;97951.59;8483228;28;20241;-69
2023/05/14 04:10:31;;;;;;;5.37;4.97;;;;;;;13.92;61.35;97954.50;8485135;27;20224;-69
2023/05/14 04:14:34;;;;;;;5.50;5.00;;;;;;;13.97;61.39;97954.22;8484996;28;20232;-69
2023/05/14 04:18:37;;;;;;;5.80;5.40;;;;;;;14.02;61.57;97953.00;8485066;27;20241;-68
2023/05/14 04:22:41;;;;;;;5.60;5.20;;;;;;;14.02;61.10;97944.38;8485077;27;20225;-69
2023/05/14 04:26:44;;;;;;;5.53;5.07;;;;;;;14.13;61.17;97951.56;8484760;27;20232;-69
2023/05/14 04:30:48;;;;;;;5.90;5.10;;;;;;;14.16;61.28;97946.97;8484703;27;20300;-69
2023/05/14 04:34:51;;;;;;;6.23;5.73;;;;;;;14.27;60.97;97956.78;8484729;28;20428;-69
2023/05/14 04:38:55;;;;;;;6.30;5.67;;;;;;;14.30;61.30;97951.41;8484342;27;20240;-68
2023/05/14 04:42:58;;;;;;;5.80;5.07;;;;;;;14.36;61.19;97950.19;8483965;27;20230;-69
2023/05/14 04:47:01;;;;;;;7.00;5.70;;;;;;;14.42;60.83;97947.22;8484036;28;20236;-69
2023/05/14 04:51:04;;;;;;;6.00;5.50;;;;;;;14.37;60.73;97955.28;8484414;28;20224;-68
2023/05/14 04:55:10;;;;;;;6.40;5.80;;;;;;;14.55;60.63;97950.75;8483892;27;20222;-69
2023/05/14 04:59:13;;;;;;;5.73;5.23;;;;;;;14.55;60.98;97945.53;8483617;27;20432;-69
2023/05/14 05:03:16;;;;;;;5.87;5.37;;;;;;;14.62;60.64;97946.00;8483619;28;20418;-68
2023/05/14 05:07:19;;;;;;;6.07;5.57;;;;;;;14.70;59.86;97945.53;8474905;27;20233;-70
2023/05/14 05:11:23;;;;;;;6.03;5.53;;;;;;;14.69;60.10;97942.09;8483318;27;20231;-69
2023/05/14 05:15:26;;;;;;;5.70;5.10;;;;;;;14.80;60.23;97934.47;8482679;27;20230;-69
2023/05/14 05:19:29;;;;;;;5.80;5.30;;;;;;;14.73;60.32;97937.56;8482654;28;20305;-68
2023/05/14 05:23:45;;;;;;;5.63;5.10;;;;;;;14.96;59.31;97934.34;8482958;27;20237;-69
2023/05/14 05:27:49;;;;;;;5.83;5.43;;;;;;;15.01;59.14;97913.19;8482853;28;20238;-68
2023/05/14 05:31:52;;;;;;;6.27;5.77;;;;;;;14.99;59.25;97922.91;8482848;27;20249;-68
2023/05/14 05:35:58;;;;;;;7.57;6.87;;;;;;;14.63;59.31;97919.03;8482655;28;20511;-68
2023/05/14 05:40:01;;;;;;;6.83;6.33;;;;;;;14.91;58.49;97928.59;8482351;28;20257;-68
2023/05/14 05:44:05;;;;;;;6.87;6.27;;;;;;;14.98;58.50;97924.69;8482425;27;20233;-68
2023/05/14 05:48:08;;;;;;;6.53;6.03;;;;;;;14.45;60.78;97919.22;8482191;27;20237;-69
2023/05/14 05:52:10;;;;;;;6.77;6.17;;;;;;;15.33;57.75;97915.53;8482266;27;20552;-69
2023/05/14 05:56:13;;;;;;;6.40;5.90;;;;;;;15.05;58.45;97922.50;8482032;27;20238;-68
2023/05/14 06:00:18;;;;;;;6.27;5.77;;;;;;;15.55;56.96;97915.78;8481783;28;20234;-68
2023/05/14 06:04:21;;;;;;;6.70;6.10;;;;;;;15.63;56.73;97928.34;8473226;27;20237;-69
2023/05/14 06:08:24;;;;;;;6.17;5.67;;;;;;;15.95;55.71;97920.19;8481555;27;20238;-69
2023/05/14 06:12:27;;;;;;;5.70;5.30;;;;;;;16.22;55.22;97925.31;8481509;27;20410;-69
2023/05/14 06:16:31;;;;;;;5.97;5.47;;;;;;;16.05;55.51;97916.03;8481440;27;20437;-68
2023/05/14 06:20:34;;;;;;;6.57;6.07;;;;;;;15.70;54.97;97931.41;8481251;28;20249;-68
2023/05/14 06:24:37;;;;;;;6.00;5.50;;;;;;;15.67;55.50;97921.16;8481086;28;20243;-68
2023/05/14 06:28:39;;;;;;;6.43;5.83;;;;;;;16.24;54.41;97928.69;8480628;28;20230;-68
2023/05/14 06:32:43;;;;;;;5.73;5.13;;;;;;;16.50;54.04;97929.50;8480678;27;20237;-69
2023/05/14 06:36:46;;;;;;;5.77;5.27;;;;;;;16.32;53.96;97931.59;8480161;27;20242;-69
2023/05/14 06:40:49;;;;;;;7.07;5.87;;;;;;;15.97;53.72;97926.16;8480255;28;20233;-69
2023/05/14 06:44:51;;;;;;;6.60;6.10;;;;;;;15.69;55.09;97930.56;8480159;28;20228;-68
2023/05/14 06:48:55;;;;;;;6.00;5.60;;;;;;;16.36;54.87;97924.41;8480274;28;20303;-68
2023/05/14 06:53:01;;;;;;;6.33;5.80;;;;;;;16.02;54.02;97924.06;8479761;28;20409;-68
2023/05/14 06:57:04;;;;;;;6.83;6.13;;;;;;;15.95;54.06;97922.81;8479824;28;20239;-69
2023/05/14 07:01:07;;;;;;;6.33;5.80;;;;;;;17.18;52.43;97914.31;8479943;28;20538;-69
2023/05/14 07:05:11;;;;;;;5.97;5.47;;;;;;;16.56;52.00;97918.63;8479714;27;20245;-69
2023/05/14 07:09:15;;;;;;;5.90;5.40;;;;;;;16.13;52.15;97920.75;8479703;27;20252;-68
2023/05/14 07:13:20;;;;;;;5.40;4.93;;;;;;;16.48;51.71;97918.31;8479234;28;20552;-69
2023/05/14 07:17:23;;;;;;;5.53;5.03;;;;;;;16.85;50.24;97923.63;8479336;27;20240;-69
2023/05/14 07:21:28;;;;;;;5.23;4.73;;;;;;;17.09;50.95;97909.75;8479725;28;20249;-68
2023/05/14 07:25:31;;;;;;;5.13;4.73;;;;;;;16.54;49.94;97904.81;8479038;28;20310;-69
2023/05/14 07:29:34;;;;;;;5.20;4.60;;;;;;;16.03;51.19;97905.69;8479629;28;20561;-69
2023/05/14 07:33:40;;;;;;;5.40;5.00;;;;;;;16.45;49.74;97913.31;8479570;27;20233;-69
2023/05/14 07:37:44;;;;;;;6.20;5.47;;;;;;;16.28;50.66;97905.78;8479345;28;20228;-69
2023/05/14 07:41:48;;;;;;;5.37;4.87;;;;;;;16.51;50.35;97904.22;8484442;27;20240;-69
2023/05/14 07:45:51;;;;;;;4.80;4.40;;;;;;;16.49;50.78;97898.25;8486014;28;20230;-69
2023/05/14 07:49:55;;;;;;;5.13;4.67;;;;;;;16.16;51.04;97910.94;8486205;28;20225;-69
2023/05/14 07:53:59;;;;;;;5.13;4.73;;;;;;;16.32;49.82;97897.63;8486082;28;20412;-69
2023/05/14 07:58:02;;;;;;;4.80;4.40;;;;;;;16.36;50.68;97893.03;8486029;27;20455;-69
2023/05/14 08:02:05;;;;;;;5.07;4.67;;;;;;;16.07;50.37;97890.66;8485402;28;20240;-69
2023/05/14 08:06:08;;;;;;;4.87;4.13;;;;;;;17.11;50.16;97892.16;8485499;27;20225;-69
2023/05/14 08:10:13;;;;;;;5.10;4.60;;;;;;;16.99;48.85;97886.84;8485178;27;20255;-69
2023/05/14 08:14:16;;;;;;;4.90;4.50;;;;;;;16.83;49.23;97886.28;8485332;28;20552;-69
2023/05/14 08:18:18;;;;;;;5.10;4.70;;;;;;;16.32;50.02;97863.66;8484844;27;20241;-69
2023/05/14 08:22:21;;;;;;;8.00;5.60;;;;;;;16.65;49.73;97892.78;8485154;27;20241;-69
2023/05/14 08:26:26;;;;;;;4.73;4.43;;;;;;;16.38;49.79;97888.53;8484781;28;20225;-69
2023/05/14 08:30:28;;;;;;;5.30;4.80;;;;;;;16.59;50.86;97891.44;8484801;27;20233;-69
2023/05/14 08:34:31;;;;;;;5.77;4.07;;;;;;;16.97;49.82;97893.97;8484843;28;20241;-69
2023/05/14 08:38:34;;;;;;;5.30;4.80;;;;;;;16.49;50.64;97899.09;8484351;28;20242;-69
2023/05/14 08:42:40;;;;;;;4.80;4.40;;;;;;;16.18;50.54;97900.34;8484710;27;20227;-69
2023/05/14 08:46:43;;;;;;;6.00;5.40;;;;;;;15.61;52.33;97881.47;8484115;27;20230;-69
2023/05/14 08:50:46;;;;;;;5.70;5.20;;;;;;;15.86;52.30;97887.72;8484068;28;20242;-69
2023/05/14 08:54:50;;;;;;;5.87;5.37;;;;;;;15.42;53.26;97889.69;8484198;27;20267;-69
2023/05/14 08:58:55;;;;;;;5.60;5.10;;;;;;;15.50;52.81;97889.19;8484035;27;20256;-69
2023/05/14 09:02:59;;;;;;;5.53;5.03;;;;;;;15.39;53.23;97887.25;8483874;28;20226;-69
2023/05/14 09:07:02;;;;;;;5.70;5.20;;;;;;;16.06;52.33;97865.44;8483921;27;20565;-69
2023/05/14 09:11:07;;;;;;;5.93;5.43;;;;;;;15.86;52.25;97876.41;8483660;27;20287;-69
2023/05/14 09:15:11;;;;;;;6.23;5.63;;;;;;;16.09;52.44;97872.22;8483148;28;20227;-69
2023/05/14 09:19:17;;;;;;;5.43;4.80;;;;;;;15.98;52.46;97878.22;8482843;27;20417;-69
2023/05/14 09:23:22;;;;;;;6.17;5.67;;;;;;;15.95;53.03;97884.44;8474115;28;20221;-69
2023/05/14 09:27:29;;;;;;;5.03;4.63;;;;;;;16.58;51.55;97879.28;8482638;27;20420;-69
2023/05/14 09:31:36;;;;;;;5.60;5.10;;;;;;;15.98;51.91;97888.66;8482787;27;20567;-69
2023/05/14 09:35:42;;;;;;;5.53;4.90;;;;;;;16.68;51.55;97875.09;8482215;27;20277;-69
2023/05/14 09:39:45;;;;;;;5.50;5.10;;;;;;;16.08;51.39;97884.47;8482067;27;20426;-69
2023/05/14 09:43:47;;;;;;;5.57;5.07;;;;;;;16.21;51.17;97874.84;8482322;27;20531;-70
2023/05/14 09:47:52;;;;;;;5.47;5.07;;;;;;;16.33;51.12;97864.50;8481869;27;20229;-70
2023/05/14 09:51:56;;;;;;;5.73;5.23;;;;;;;16.59;50.95;97855.66;8482535;28;20539;-70
2023/05/14 09:55:59;;;;;;;4.90;4.60;;;;;;;16.61;50.17;97842.50;8482667;28;20562;-69
2023/05/14 10:00:02;;;;;;;5.30;4.87;;;;;;;16.88;50.32;97844.94;8482232;28;20227;-70
2023/05/14 10:04:08;;;;;;;5.40;5.00;;;;;;;16.84;50.04;97837.44;8481447;28;20236;-70
2023/05/14 10:08:14;;;;;;;5.27;4.77;;;;;;;17.74;48.93;97825.53;8482033;27;20347;-69
2023/05/14 10:12:22;;;;;;;3.10;2.80;;;;;;;19.42;56.47;97840.34;8482055;28;20227;-68
2023/05/14 10:16:28;;;;;;;5.50;5.00;;;;;;;19.34;46.54;97828.69;8447686;27;20231;-68
2023/05/14 10:20:32;;;;;;;6.40;3.80;;;;;;;20.58;46.13;97827.03;8447842;28;20274;-69
2023/05/14 10:24:37;;;;;;;4.43;3.93;;;;;;;20.19;45.56;97826.03;8447597;28;20231;-69
2023/05/14 10:28:40;;;;;;;4.40;4.00;;;;;;;20.81;43.55;97811.84;8447684;27;20238;-68
2023/05/14 10:32:43;;;;;;;4.37;3.97;;;;;;;20.28;45.30;97825.25;8447321;28;20410;-66
2023/05/14 10:36:47;;;;;;;4.43;4.03;;;;;;;20.07;45.16;97820.88;8447315;27;20403;-69
2023/05/14 10:40:56;;;;;;;3.90;3.60;;;;;;;20.04;45.43;97817.66;8446940;28;20232;-71
2023/05/14 10:45:04;;;;;;;4.63;4.23;;;;;;;19.36;43.24;97789.16;8447172;28;20289;-68
2023/05/14 10:49:09;;;;;;;4.20;3.77;;;;;;;19.83;45.35;97815.91;8447046;27;20223;-68
2023/05/14 10:53:14;;;;;;;4.57;4.20;;;;;;;19.80;45.31;97810.06;8447642;27;20233;-68
2023/05/14 10:57:18;;;;;;;3.80;3.50;;;;;;;19.60;45.52;97806.47;8447265;28;20232;-68
2023/05/14 11:01:24;;;;;;;4.17;3.87;;;;;;;19.31;45.51;97800.06;8472229;28;20232;-69
2023/05/14 11:05:27;;;;;;;3.83;3.63;;;;;;;19.50;45.69;97795.91;8479739;27;20541;-68
2023/05/14 11:09:31;;;;;;;4.07;3.77;;;;;;;19.50;45.35;97788.84;8480233;28;20243;-69
2023/05/14 11:13:34;;;;;;;4.13;3.40;;;;;;;19.61;44.93;97793.22;8479598;28;20522;-69
2023/05/14 11:17:38;;;;;;;4.10;3.80;;;;;;;19.70;45.04;97794.22;8480299;28;20542;-67
2023/05/14 11:21:41;;;;;;;6.37;3.70;;;;;;;19.59;45.25;97778.53;8480169;27;20546;-68
2023/05/14 11:25:45;;;;;;;4.70;4.40;;;;;;;18.05;44.50;97604.88;8479910;28;20395;-69
2023/05/14 11:29:50;;;;;;;4.40;4.10;;;;;;;18.74;44.82;97759.22;8479550;28;20232;-69
2023/05/14 11:33:53;;;;;;;4.33;3.70;;;;;;;19.29;45.89;97780.16;8479868;27;20226;-68
2023/05/14 11:37:55;;;;;;;3.97;3.67;;;;;;;19.42;45.89;97780.78;8485366;28;20420;-69
2023/05/14 11:42:00;;;;;;;4.00;3.70;;;;;;;19.34;44.55;97770.94;8479317;28;20240;-69
2023/05/14 11:46:03;;;;;;;3.67;3.40;;;;;;;20.35;44.09;97772.94;8479933;28;20228;-69
2023/05/14 11:50:07;;;;;;;3.97;3.67;;;;;;;20.53;42.94;97768.72;8479551;27;20240;-69
2023/05/14 11:54:13;;;;;;;3.53;3.23;;;;;;;20.74;42.62;97763.38;8479612;27;20228;-69
2023/05/14 11:58:18;;;;;;;3.90;3.60;;;;;;;21.08;42.55;97755.06;8479368;28;20231;-69
2023/05/14 12:02:21;;;;;;;3.40;3.10;;;;;;;21.33;41.27;97760.72;8471147;27;20217;-68
2023/05/14 12:06:30;;;;;;;3.47;3.27;;;;;;;21.21;41.41;97752.13;8479340;28;20507;-68
2023/05/14 12:10:42;;;;;;;4.80;4.40;;;;;;;21.21;41.39;97746.88;8479362;28;20234;-69
2023/05/14 12:14:46;;;;;;;4.90;4.50;;;;;;;21.18;40.40;97752.44;8479321;27;20219;-68
2023/05/14 12:18:49;;;;;;;3.60;3.30;;;;;;;21.59;39.88;97746.03;8479081;28;20227;-69
2023/05/14 12:22:53;;;;;;;5.00;3.13;;;;;;;22.30;38.85;97733.28;8479235;28;20245;-69
2023/05/14 12:26:56;;;;;;;4.03;3.60;;;;;;;22.06;40.11;97739.88;8482533;28;20223;-69
2023/05/14 12:31:00;;;;;;;3.57;3.27;;;;;;;21.92;39.91;97730.63;8485343;27;20227;-69
2023/05/14 12:35:03;;;;;;;3.73;3.43;;;;;;;22.41;37.59;97673.22;8484762;27;20234;-69
2023/05/14 12:39:06;;;;;;;3.40;3.20;;;;;;;23.69;36.50;97728.34;8484973;28;20230;-69
2023/05/14 12:43:09;;;;;;;3.30;3.10;;;;;;;22.55;39.25;97718.53;8485040;27;20246;-69
2023/05/14 12:47:16;;;;;;;3.43;3.23;;;;;;;22.61;36.79;97641.38;8484837;28;20230;-69
2023/05/14 12:51:19;;;;;;;3.40;3.10;;;;;;;22.73;37.23;97710.59;8475841;27;20223;-69
2023/05/14 12:55:22;;;;;;;3.10;2.90;;;;;;;22.51;36.89;97696.88;8484660;27;20460;-69
2023/05/14 12:59:25;;;;;;;3.00;2.80;;;;;;;22.67;36.51;97695.38;8484206;27;20235;-69
2023/05/14 13:03:29;;;;;;;3.50;3.30;;;;;;;22.57;38.13;97690.19;8484009;27;20242;-69
2023/05/14 13:07:32;;;;;;;2.93;2.73;;;;;;;23.88;36.60;97682.38;8484123;27;20223;-69
2023/05/14 13:11:34;;;;;;;4.87;2.63;;;;;;;23.19;35.68;97659.34;8483956;28;20238;-69
2023/05/14 13:15:37;;;;;;;2.63;2.50;;;;;;;22.94;37.04;97675.97;8483723;27;21984;-69
2023/05/14 13:19:42;;;;;;;2.77;2.60;;;;;;;21.86;37.77;97678.50;8483312;27;20223;-69
2023/05/14 13:23:47;;;;;;;2.77;2.67;;;;;;;21.57;37.82;97679.47;8483476;28;20231;-69
2023/05/14 13:27:50;;;;;;;3.07;2.87;;;;;;;20.65;38.05;97678.19;8483246;28;20226;-69
2023/05/14 13:31:53;;;;;;;2.93;2.73;;;;;;;20.33;39.16;97675.78;8483344;27;20332;-69
2023/05/14 13:35:58;;;;;;;2.83;2.70;;;;;;;20.20;39.16;97654.19;8483416;27;20223;-69
2023/05/14 13:40:03;;;;;;;2.80;2.60;;;;;;;20.03;38.39;97674.06;8482277;27;20235;-69
2023/05/14 13:44:05;;;;;;;2.60;2.50;;;;;;;19.61;39.68;97664.50;8483188;28;20227;-69
2023/05/14 13:48:08;;;;;;;2.23;2.13;;;;;;;20.55;39.98;97656.28;8483245;27;20229;-69
2023/05/14 13:52:12;;;;;;;3.00;2.80;;;;;;;20.18;38.10;97656.09;8482659;27;20535;-69
2023/05/14 13:56:15;;;;;;;2.70;2.50;;;;;;;20.27;38.95;97650.03;8482809;27;20222;-69
2023/05/14 14:00:18;;;;;;;3.00;2.80;;;;;;;21.32;37.59;97644.00;8482103;28;20240;-69
2023/05/14 14:04:23;;;;;;;3.17;2.40;;;;;;;21.88;36.56;97633.56;8482168;28;20415;-69
2023/05/14 14:08:27;;;;;;;2.27;2.17;;;;;;;22.92;36.74;97636.50;8482303;28;20223;-69
2023/05/14 14:12:30;;;;;;;2.80;2.53;;;;;;;21.79;35.78;97636.06;8482321;28;20230;-70
2023/05/14 14:16:33;;;;;;;2.60;2.40;;;;;;;20.47;38.26;97619.34;8482107;28;20526;-69
2023/05/14 14:20:35;;;;;;;2.50;2.40;;;;;;;20.13;38.92;97626.78;8481907;27;20227;-69
2023/05/14 14:24:40;;;;;;;2.77;2.57;;;;;;;20.56;38.53;97629.03;8481770;28;20238;-70
2023/05/14 14:28:43;;;;;;;2.43;2.33;;;;;;;20.76;39.67;97621.16;8481388;28;20549;-70
2023/05/14 14:32:46;;;;;;;2.53;2.33;;;;;;;20.73;38.72;97614.34;8481476;27;20238;-69
2023/05/14 14:36:49;;;;;;;2.97;2.77;;;;;;;20.56;39.51;97620.28;8481526;28;20222;-69
2023/05/14 14:40:53;;;;;;;2.87;2.67;;;;;;;20.11;39.48;97605.91;8481165;27;20223;-70
2023/05/14 14:44:55;;;;;;;2.60;2.50;;;;;;;19.82;39.58;97604.06;8481428;27;20233;-70
2023/05/14 14:48:58;;;;;;;2.90;2.70;;;;;;;20.11;39.34;97592.75;8480647;28;20232;-70
2023/05/14 14:53:01;;;;;;;10.03;9.23;;;;;;;20.57;38.28;97598.28;8480860;27;20291;-69
2023/05/14 14:57:05;;;;;;;6.87;6.33;;;;;;;20.43;39.06;97589.84;8480981;27;20224;-70
2023/05/14 15:01:08;;;;;;;22.07;19.87;;;;;;;20.33;37.95;97594.28;8480730;28;20241;-69
2023/05/14 15:05:14;;;;;;;5.47;4.97;;;;;;;20.63;38.26;97595.13;8480815;28;20294;-70
2023/05/14 15:09:17;;;;;;;2.47;2.37;;;;;;;20.22;38.62;97597.03;8480264;28;20226;-69
2023/05/14 15:13:21;;;;;;;2.97;2.77;;;;;;;19.61;39.09;97590.13;8471728;28;20242;-70
2023/05/14 15:17:25;;;;;;;2.53;2.43;;;;;;;19.79;40.66;97590.34;8480338;28;20250;-70
2023/05/14 15:21:28;;;;;;;4.00;3.67;;;;;;;19.59;40.30;97573.66;8480290;28;20231;-69
2023/05/14 15:25:31;;;;;;;2.97;2.77;;;;;;;19.94;41.71;97588.16;8479992;27;20230;-70
2023/05/14 15:29:35;;;;;;;3.00;2.80;;;;;;;20.07;42.04;97584.31;8480344;28;20266;-70
2023/05/14 15:33:40;;;;;;;2.63;2.43;;;;;;;21.16;40.27;97591.94;8480071;28;20237;-70
2023/05/14 15:37:45;;;;;;;2.93;2.73;;;;;;;20.93;40.04;97536.19;8479838;28;20220;-69
2023/05/14 15:41:48;;;;;;;4.40;4.10;;;;;;;20.73;39.56;97579.31;8479572;28;20227;-69
2023/05/14 15:45:52;;;;;;;2.77;2.60;;;;;;;20.44;38.37;97580.16;8479830;28;20229;-69
2023/05/14 15:49:55;;;;;;;2.87;2.67;;;;;;;20.70;38.09;97572.56;8479995;27;20573;-69
2023/05/14 15:53:58;;;;;;;3.10;2.80;;;;;;;21.43;38.57;97571.88;8479641;28;20234;-70
2023/05/14 15:58:02;;;;;;;2.80;2.70;;;;;;;20.59;39.28;97564.78;8480028;28;20530;-70
2023/05/14 16:02:07;;;;;;;3.30;3.07;;;;;;;20.87;38.37;97574.44;8483563;27;20538;-69
2023/05/14 16:06:11;;;;;;;3.00;2.80;;;;;;;21.45;39.45;97570.78;8486004;28;20233;-70
2023/05/14 16:10:13;;;;;;;2.90;2.70;;;;;;;20.81;37.79;97576.81;8485900;27;20227;-70
2023/05/14 16:14:17;;;;;;;2.73;2.53;;;;;;;20.59;38.00;97570.88;8485987;28;20378;-70
2023/05/14 16:18:23;;;;;;;2.57;2.47;;;;;;;21.21;38.35;97573.06;8476814;27;20295;-71
2023/05/14 16:22:27;;;;;;;2.90;2.70;;;;;;;20.53;39.18;97570.59;8485282;28;20262;-70
2023/05/14 16:26:30;;;;;;;2.77;2.57;;;;;;;20.33;40.33;97565.34;8485744;28;20588;-70
2023/05/14 16:30:33;;;;;;;3.23;2.93;;;;;;;20.07;40.55;97562.47;8484071;28;20254;-71
2023/05/14 16:34:37;;;;;;;3.20;2.90;;;;;;;19.84;41.02;97569.78;8485469;27;20425;-71
2023/05/14 16:38:40;;;;;;;3.20;3.00;;;;;;;19.96;41.30;97562.59;8484514;27;20223;-71
2023/05/14 16:43:03;;;;;;;3.23;3.03;;;;;;;20.14;41.30;97568.81;8484868;27;20236;-71
2023/05/14 16:47:06;;;;;;;3.03;2.83;;;;;;;19.88;41.34;97571.16;8484645;28;20404;-71
2023/05/14 16:51:10;;;;;;;2.70;2.50;;;;;;;19.67;41.20;97561.53;8484635;27;20224;-71
2023/05/14 16:55:14;;;;;;;2.83;2.50;;;;;;;19.65;39.74;97562.66;8484460;28;20516;-71
2023/05/14 16:59:17;;;;;;;2.93;2.67;;;;;;;19.92;39.86;97556.78;8484449;28;20536;-71
2023/05/14 17:03:20;;;;;;;2.97;2.60;;;;;;;19.52;40.89;97549.75;8449795;28;20237;-71
2023/05/14 17:07:24;;;;;;;2.60;2.37;;;;;;;19.89;40.90;97547.34;8450299;28;20240;-71
2023/05/14 17:11:27;;;;;;;2.57;2.47;;;;;;;19.71;39.88;97554.22;8449907;27;20227;-71
2023/05/14 17:15:31;;;;;;;2.70;2.50;;;;;;;19.73;39.95;97547.06;8449902;27;20292;-71
2023/05/14 17:19:34;;;;;;;3.03;2.43;;;;;;;19.55;40.46;97554.72;8450131;28;20228;-71
2023/05/14 17:23:38;;;;;;;3.00;2.80;;;;;;;19.43;40.73;97546.13;8449649;28;20240;-71
2023/05/14 17:27:40;;;;;;;3.00;2.80;;;;;;;19.28;41.31;97547.47;8449528;27;20511;-70
2023/05/14 17:31:43;;;;;;;3.20;3.00;;;;;;;18.89;42.18;97521.88;8449665;28;20431;-71
2023/05/14 17:35:46;;;;;;;3.70;3.40;;;;;;;19.07;42.65;97550.97;8448267;28;20232;-71
2023/05/14 17:39:51;;;;;;;3.03;2.83;;;;;;;18.86;42.50;97527.38;8449078;27;20227;-71
2023/05/14 17:43:53;;;;;;;3.20;3.00;;;;;;;19.19;42.51;97553.50;8449031;28;20243;-70
2023/05/14 17:47:56;;;;;;;3.57;3.27;;;;;;;19.10;42.92;97553.34;8449007;28;20224;-69
2023/05/14 17:52:01;;;;;;;4.10;3.20;;;;;;;18.80;43.33;97551.53;8448972;27;20253;-70
2023/05/14 17:56:05;;;;;;;2.93;2.73;;;;;;;18.86;43.58;97553.63;8448561;28;20227;-69
2023/05/14 18:00:09;;;;;;;3.00;2.70;;;;;;;18.60;43.55;97555.81;8448512;28;20243;-69
2023/05/14 18:04:11;;;;;;;4.20;3.00;;;;;;;18.85;43.84;97559.84;8448549;28;20434;-68
2023/05/14 18:08:14;;;;;;;3.17;2.97;;;;;;;18.85;43.47;97553.75;8448302;27;20228;-69
2023/05/14 18:12:18;;;;;;;2.73;2.53;;;;;;;18.84;43.85;97557.34;8447831;28;20238;-70
2023/05/14 18:16:21;;;;;;;3.17;2.97;;;;;;;18.71;44.06;97558.34;8447799;28;20246;-69
2023/05/14 18:20:24;;;;;;;3.73;3.30;;;;;;;18.69;43.86;97568.13;8447749;27;20230;-69
2023/05/14 18:24:27;;;;;;;6.53;2.93;;;;;;;18.65;43.76;97566.72;8447278;28;20231;-69
2023/05/14 18:28:31;;;;;;;4.20;3.90;;;;;;;18.56;44.78;97568.34;8447706;28;20224;-69
2023/05/14 18:32:37;;;;;;;2.90;2.70;;;;;;;18.57;44.29;97561.31;8447794;27;20527;-69
2023/05/14 18:36:39;;;;;;;3.43;3.13;;;;;;;18.47;44.90;97571.72;8447647;27;20250;-69
2023/05/14 18:40:42;;;;;;;3.43;2.90;;;;;;;18.38;45.43;97579.53;8447017;28;20234;-69
2023/05/14 18:44:46;;;;;;;4.90;4.50;;;;;;;18.35;45.53;97572.72;8447535;28;20227;-68
2023/05/14 18:48:50;;;;;;;3.60;3.30;;;;;;;18.32;45.92;97560.72;8447011;28;20250;-69
2023/05/14 18:52:53;;;;;;;3.87;3.57;;;;;;;18.40;45.72;97564.50;8446686;28;20230;-68
2023/05/14 18:56:56;;;;;;;3.63;3.37;;;;;;;17.77;47.24;97563.38;8446728;28;20219;-68
2023/05/14 19:01:00;;;;;;;4.60;3.60;;;;;;;17.63;47.84;97568.91;8446718;27;20235;-68
2023/05/14 19:05:05;;;;;;;4.77;4.40;;;;;;;17.27;47.58;97494.94;8446790;28;20503;-68
2023/05/14 19:09:08;;;;;;;4.83;4.43;;;;;;;17.96;47.57;97575.03;8446278;27;20216;-68